createdAt,value
2023-03-22T00:04:50.891Z,100.00
2023-03-22T00:09:54.152Z,100.00
2023-03-22T00:15:00.200Z,100.00
2023-03-22T00:20:06.346Z,100.00
2023-03-22T00:25:09.937Z,100.00
2023-03-22T00:30:15.564Z,100.00
2023-03-22T00:35:18.898Z,100.00
2023-03-22T00:40:24.362Z,100.00
2023-03-22T00:45:29.099Z,100.00
2023-03-22T00:50:32.403Z,100.00
2023-03-22T00:55:35.666Z,100.00
2023-03-22T01:00:41.252Z,100.00
2023-03-22T01:05:46.476Z,100.00
2023-03-22T01:10:52.462Z,100.00
2023-03-22T01:15:57.196Z,100.00
2023-03-22T01:21:01.121Z,100.00
2023-03-22T01:26:05.432Z,100.00
2023-03-22T01:31:10.467Z,100.00
2023-03-22T01:36:13.887Z,100.00
2023-03-22T01:41:17.868Z,100.00
2023-03-22T01:46:23.639Z,100.00
2023-03-22T01:51:27.522Z,100.00
2023-03-22T01:56:53.281Z,100.00
2023-03-22T02:02:08.434Z,100.00
2023-03-22T02:07:16.611Z,100.00
2023-03-22T02:12:34.957Z,100.00
2023-03-22T02:18:06.437Z,100.00
2023-03-22T02:23:42.878Z,100.00
2023-03-22T02:28:54.164Z,100.00
2023-03-22T02:34:23.978Z,100.00
2023-03-22T02:39:36.600Z,100.00
2023-03-22T02:44:43.953Z,100.00
2023-03-22T02:49:57.056Z,100.00
2023-03-22T02:55:09.130Z,100.00
2023-03-22T03:00:16.075Z,100.00
2023-03-22T03:05:21.515Z,100.00
2023-03-22T03:10:28.265Z,100.00
2023-03-22T03:15:31.758Z,100.00
2023-03-22T03:20:46.581Z,100.00
2023-03-22T03:26:01.697Z,100.00
2023-03-22T03:31:12.270Z,100.00
2023-03-22T03:36:19.591Z,100.00
2023-03-22T03:41:28.564Z,100.00
2023-03-22T03:46:32.179Z,100.00
2023-03-22T03:51:48.631Z,100.00
2023-03-22T03:56:53.849Z,100.00
2023-03-22T04:01:57.211Z,100.00
2023-03-22T04:07:06.656Z,100.00
2023-03-22T04:12:13.952Z,100.00
2023-03-22T04:17:20.560Z,100.00
2023-03-22T04:22:25.150Z,100.00
2023-03-22T04:27:29.947Z,100.00
2023-03-22T04:32:39.757Z,100.00
2023-03-22T04:37:44.452Z,100.00
2023-03-22T04:42:57.539Z,100.00
2023-03-22T04:48:12.466Z,100.00
2023-03-22T04:53:15.801Z,100.00
2023-03-22T04:58:22.415Z,100.00
2023-03-22T05:03:26.451Z,100.00
2023-03-22T05:08:32.741Z,100.00
2023-03-22T05:13:39.120Z,100.00
2023-03-22T05:18:45.809Z,100.00
2023-03-22T05:23:51.618Z,100.00
2023-03-22T05:28:57.798Z,100.00
2023-03-22T05:34:15.920Z,100.00
2023-03-22T05:39:20.520Z,100.00
2023-03-22T05:44:25.639Z,100.00
2023-03-22T05:49:38.259Z,100.00
2023-03-22T05:54:42.307Z,100.00
2023-03-22T05:59:47.171Z,100.00
2023-03-22T06:04:57.102Z,100.00
2023-03-22T06:10:01.676Z,100.00
2023-03-22T06:15:10.907Z,100.00
2023-03-22T06:20:31.638Z,100.00
2023-03-22T06:25:39.390Z,100.00
2023-03-22T06:30:44.404Z,100.00
2023-03-22T06:36:11.387Z,100.00
2023-03-22T06:41:37.868Z,100.00
2023-03-22T06:46:42.730Z,100.00
2023-03-22T06:51:55.690Z,100.00
2023-03-22T06:56:59.603Z,100.00
2023-03-22T07:02:05.381Z,100.00
2023-03-22T07:07:09.318Z,100.00
2023-03-22T07:12:13.108Z,100.00
2023-03-22T07:17:18.241Z,100.00
2023-03-22T07:22:22.539Z,100.00
2023-03-22T07:27:27.878Z,100.00
2023-03-22T07:32:33.445Z,100.00
2023-03-22T07:37:42.528Z,100.00
2023-03-22T07:42:55.990Z,100.00
2023-03-22T07:48:22.752Z,100.00
2023-03-22T07:53:38.370Z,100.00
2023-03-22T07:58:50.440Z,100.00
2023-03-22T08:03:56.102Z,99.57
2023-03-22T08:09:21.930Z,96.87
2023-03-22T08:14:35.851Z,94.48
2023-03-22T08:19:44.177Z,94.57
2023-03-22T08:24:50.703Z,94.07
2023-03-22T08:30:02.816Z,92.96
2023-03-22T08:35:10.645Z,90.82
2023-03-22T08:40:14.557Z,91.44
2023-03-22T08:45:22.868Z,89.98
2023-03-22T08:50:36.227Z,88.49
2023-03-22T08:55:49.799Z,83.04
2023-03-22T09:01:21.387Z,84.06
2023-03-22T09:06:31.488Z,84.68
2023-03-22T09:11:37.228Z,84.07
2023-03-22T09:16:40.770Z,86.95
2023-03-22T09:21:45.605Z,83.55
2023-03-22T09:26:54.620Z,76.60
2023-03-22T09:31:58.031Z,77.05
2023-03-22T09:37:08.416Z,76.23
2023-03-22T09:42:33.930Z,72.71
2023-03-22T09:47:45.402Z,73.51
2023-03-22T09:52:51.570Z,73.14
2023-03-22T09:58:04.116Z,70.78
2023-03-22T10:03:18.229Z,72.21
2023-03-22T10:08:34.395Z,71.99
2023-03-22T10:13:46.775Z,71.58
2023-03-22T10:18:53.298Z,70.74
2023-03-22T10:24:02.123Z,72.12
2023-03-22T10:29:13.983Z,74.73
2023-03-22T10:34:22.391Z,73.43
2023-03-22T10:39:33.913Z,68.51
2023-03-22T10:44:45.894Z,65.97
2023-03-22T10:49:55.180Z,67.91
2023-03-22T10:55:04.190Z,68.94
2023-03-22T11:00:11.659Z,67.63
2023-03-22T11:05:23.057Z,67.62
2023-03-22T11:10:30.145Z,70.52
2023-03-22T11:15:35.992Z,71.50
2023-03-22T11:20:42.115Z,70.71
2023-03-22T11:25:49.845Z,70.01
2023-03-22T11:31:05.714Z,67.03
2023-03-22T11:36:18.001Z,67.55
2023-03-22T11:41:26.902Z,68.43
2023-03-22T11:46:31.350Z,68.37
2023-03-22T11:51:37.100Z,70.44
2023-03-22T11:56:44.734Z,69.55
2023-03-22T12:01:52.443Z,71.47
2023-03-22T12:06:59.872Z,71.66
2023-03-22T12:12:07.859Z,70.82
2023-03-22T12:17:16.859Z,71.97
2023-03-22T12:22:24.140Z,71.12
2023-03-22T12:27:34.192Z,72.16
2023-03-22T12:32:41.863Z,72.19
2023-03-22T12:37:48.348Z,75.73
2023-03-22T12:43:01.643Z,73.76
2023-03-22T12:48:09.384Z,71.88
2023-03-22T12:53:16.363Z,73.52
2023-03-22T12:58:23.466Z,70.50
2023-03-22T13:03:29.367Z,68.04
2023-03-22T13:09:13.222Z,67.57
2023-03-22T13:14:49.657Z,65.35
2023-03-22T13:19:55.301Z,62.37
2023-03-22T13:25:13.717Z,62.24
2023-03-22T13:30:24.348Z,62.66
2023-03-22T13:35:35.672Z,62.96
2023-03-22T13:40:47.542Z,66.04
2023-03-22T13:46:28.186Z,66.17
2023-03-22T13:51:33.794Z,61.80
2023-03-22T13:56:52.956Z,59.77
2023-03-22T14:02:00.633Z,59.65
2023-03-22T14:07:14.974Z,61.17
2023-03-22T14:12:22.925Z,62.61
2023-03-22T14:17:36.274Z,61.83
